TAF EPSY 170830Z 1709/1718 29006KT CAVOK PROB40 TEMPO 1714/1718 -SHRA SCT040CB=